sensor_id;sensor_type;location;lat;lon;timestamp;P1;durP1;ratioP1;P2;durP2;ratioP2
7173;SDS011;3628;48.654;8.932;2023-12-20T00:02:16;0.50;;;0.50;;
7173;SDS011;3628;48.654;8.932;2023-12-20T00:04:42;0.60;;;0.60;;
7173;SDS011;3628;48.654;8.932;2023-12-20T00:07:08;0.63;;;0.60;;
7173;SDS011;3628;48.654;8.932;2023-12-20T00:09:33;0.30;;;0.30;;
7173;SDS011;3628;48.654;8.932;2023-12-20T00:11:59;0.90;;;0.70;;
7173;SDS011;3628;48.654;8.932;2023-12-20T00:14:24;0.70;;;0.50;;
7173;SDS011;3628;48.654;8.932;2023-12-20T00:16:50;0.50;;;0.50;;
7173;SDS011;3628;48.654;8.932;2023-12-20T00:19:15;0.50;;;0.50;;
7173;SDS011;3628;48.654;8.932;2023-12-20T00:21:41;0.40;;;0.40;;
7173;SDS011;3628;48.654;8.932;2023-12-20T00:24:07;0.50;;;0.50;;
7173;SDS011;3628;48.654;8.932;2023-12-20T00:26:32;0.60;;;0.60;;
7173;SDS011;3628;48.654;8.932;2023-12-20T00:28:59;0.60;;;0.43;;
7173;SDS011;3628;48.654;8.932;2023-12-20T00:31:24;0.40;;;0.40;;
7173;SDS011;3628;48.654;8.932;2023-12-20T00:33:50;0.60;;;0.43;;
7173;SDS011;3628;48.654;8.932;2023-12-20T00:36:16;0.60;;;0.60;;
7173;SDS011;3628;48.654;8.932;2023-12-20T00:38:41;0.40;;;0.40;;
7173;SDS011;3628;48.654;8.932;2023-12-20T00:41:07;0.77;;;0.47;;
7173;SDS011;3628;48.654;8.932;2023-12-20T00:43:33;0.30;;;0.30;;
7173;SDS011;3628;48.654;8.932;2023-12-20T00:45:59;0.50;;;0.50;;
7173;SDS011;3628;48.654;8.932;2023-12-20T00:48:27;0.50;;;0.50;;
7173;SDS011;3628;48.654;8.932;2023-12-20T00:50:55;0.40;;;0.40;;
7173;SDS011;3628;48.654;8.932;2023-12-20T00:53:20;1.27;;;0.50;;
7173;SDS011;3628;48.654;8.932;2023-12-20T00:55:46;0.70;;;0.43;;
7173;SDS011;3628;48.654;8.932;2023-12-20T00:58:11;0.40;;;0.40;;
7173;SDS011;3628;48.654;8.932;2023-12-20T01:00:37;0.80;;;0.50;;
7173;SDS011;3628;48.654;8.932;2023-12-20T01:03:03;0.40;;;0.30;;
7173;SDS011;3628;48.654;8.932;2023-12-20T01:05:28;0.40;;;0.40;;
7173;SDS011;3628;48.654;8.932;2023-12-20T01:07:54;0.40;;;0.40;;
7173;SDS011;3628;48.654;8.932;2023-12-20T01:10:20;0.50;;;0.40;;
7173;SDS011;3628;48.654;8.932;2023-12-20T01:12:47;0.30;;;0.30;;
7173;SDS011;3628;48.654;8.932;2023-12-20T01:15:12;0.47;;;0.40;;
7173;SDS011;3628;48.654;8.932;2023-12-20T01:17:38;0.90;;;0.40;;
7173;SDS011;3628;48.654;8.932;2023-12-20T01:20:03;0.63;;;0.50;;
7173;SDS011;3628;48.654;8.932;2023-12-20T01:22:29;1.00;;;0.70;;
7173;SDS011;3628;48.654;8.932;2023-12-20T01:24:55;0.30;;;0.30;;
7173;SDS011;3628;48.654;8.932;2023-12-20T01:27:20;0.50;;;0.50;;
7173;SDS011;3628;48.654;8.932;2023-12-20T01:29:46;0.53;;;0.50;;
7173;SDS011;3628;48.654;8.932;2023-12-20T01:32:11;0.47;;;0.47;;
7173;SDS011;3628;48.654;8.932;2023-12-20T01:34:37;0.40;;;0.40;;
7173;SDS011;3628;48.654;8.932;2023-12-20T01:37:03;3.20;;;0.40;;
7173;SDS011;3628;48.654;8.932;2023-12-20T01:39:29;0.33;;;0.33;;
7173;SDS011;3628;48.654;8.932;2023-12-20T01:41:54;0.57;;;0.40;;
7173;SDS011;3628;48.654;8.932;2023-12-20T01:44:20;0.20;;;0.20;;
7173;SDS011;3628;48.654;8.932;2023-12-20T01:46:45;0.23;;;0.23;;
7173;SDS011;3628;48.654;8.932;2023-12-20T01:49:12;0.50;;;0.30;;
7173;SDS011;3628;48.654;8.932;2023-12-20T01:51:38;0.30;;;0.30;;
7173;SDS011;3628;48.654;8.932;2023-12-20T01:54:04;0.30;;;0.20;;
7173;SDS011;3628;48.654;8.932;2023-12-20T01:56:30;0.30;;;0.30;;
7173;SDS011;3628;48.654;8.932;2023-12-20T01:58:56;0.10;;;0.10;;
7173;SDS011;3628;48.654;8.932;2023-12-20T02:01:22;0.30;;;0.30;;
7173;SDS011;3628;48.654;8.932;2023-12-20T02:03:48;0.67;;;0.20;;
7173;SDS011;3628;48.654;8.932;2023-12-20T02:06:13;0.50;;;0.20;;
7173;SDS011;3628;48.654;8.932;2023-12-20T02:08:39;0.30;;;0.30;;
7173;SDS011;3628;48.654;8.932;2023-12-20T02:11:05;0.20;;;0.20;;
7173;SDS011;3628;48.654;8.932;2023-12-20T02:13:31;0.20;;;0.20;;
7173;SDS011;3628;48.654;8.932;2023-12-20T02:15:57;0.30;;;0.30;;
7173;SDS011;3628;48.654;8.932;2023-12-20T02:18:22;0.20;;;0.20;;
7173;SDS011;3628;48.654;8.932;2023-12-20T02:20:48;0.17;;;0.10;;
7173;SDS011;3628;48.654;8.932;2023-12-20T02:23:14;0.57;;;0.13;;
7173;SDS011;3628;48.654;8.932;2023-12-20T02:25:39;0.10;;;0.10;;
7173;SDS011;3628;48.654;8.932;2023-12-20T02:28:05;0.10;;;0.10;;
7173;SDS011;3628;48.654;8.932;2023-12-20T02:30:31;0.13;;;0.10;;
7173;SDS011;3628;48.654;8.932;2023-12-20T02:32:57;0.17;;;0.17;;
7173;SDS011;3628;48.654;8.932;2023-12-20T02:35:24;0.30;;;0.10;;
7173;SDS011;3628;48.654;8.932;2023-12-20T02:37:50;0.00;;;0.00;;
7173;SDS011;3628;48.654;8.932;2023-12-20T02:40:16;0.10;;;0.10;;
7173;SDS011;3628;48.654;8.932;2023-12-20T02:42:41;1.20;;;0.20;;
7173;SDS011;3628;48.654;8.932;2023-12-20T02:45:07;0.03;;;0.03;;
7173;SDS011;3628;48.654;8.932;2023-12-20T02:47:33;0.00;;;0.00;;
7173;SDS011;3628;48.654;8.932;2023-12-20T02:49:58;0.20;;;0.20;;
7173;SDS011;3628;48.654;8.932;2023-12-20T02:52:24;0.03;;;0.00;;
7173;SDS011;3628;48.654;8.932;2023-12-20T02:54:50;0.10;;;0.10;;
7173;SDS011;3628;48.654;8.932;2023-12-20T02:57:15;0.00;;;0.00;;
7173;SDS011;3628;48.654;8.932;2023-12-20T02:59:41;0.10;;;0.10;;
7173;SDS011;3628;48.654;8.932;2023-12-20T03:02:07;0.00;;;0.00;;
7173;SDS011;3628;48.654;8.932;2023-12-20T03:04:32;0.07;;;0.07;;
7173;SDS011;3628;48.654;8.932;2023-12-20T03:06:58;0.10;;;0.10;;
7173;SDS011;3628;48.654;8.932;2023-12-20T03:09:23;0.00;;;0.00;;
7173;SDS011;3628;48.654;8.932;2023-12-20T03:11:49;0.00;;;0.00;;
7173;SDS011;3628;48.654;8.932;2023-12-20T03:14:15;0.00;;;0.00;;
7173;SDS011;3628;48.654;8.932;2023-12-20T03:16:41;0.00;;;0.00;;
7173;SDS011;3628;48.654;8.932;2023-12-20T03:19:11;0.30;;;0.10;;
7173;SDS011;3628;48.654;8.932;2023-12-20T03:21:36;0.10;;;0.10;;
7173;SDS011;3628;48.654;8.932;2023-12-20T03:24:02;0.20;;;0.10;;
7173;SDS011;3628;48.654;8.932;2023-12-20T03:26:28;0.43;;;0.00;;
7173;SDS011;3628;48.654;8.932;2023-12-20T03:28:53;0.00;;;0.00;;
7173;SDS011;3628;48.654;8.932;2023-12-20T03:31:19;0.37;;;0.10;;
7173;SDS011;3628;48.654;8.932;2023-12-20T03:33:45;0.00;;;0.00;;
7173;SDS011;3628;48.654;8.932;2023-12-20T03:36:11;0.10;;;0.10;;
7173;SDS011;3628;48.654;8.932;2023-12-20T03:38:37;0.50;;;0.10;;
7173;SDS011;3628;48.654;8.932;2023-12-20T03:41:02;0.20;;;0.00;;
7173;SDS011;3628;48.654;8.932;2023-12-20T03:43:28;0.10;;;0.00;;
7173;SDS011;3628;48.654;8.932;2023-12-20T03:45:53;0.13;;;0.00;;
7173;SDS011;3628;48.654;8.932;2023-12-20T03:48:19;0.00;;;0.00;;
7173;SDS011;3628;48.654;8.932;2023-12-20T03:50:44;0.77;;;0.10;;
7173;SDS011;3628;48.654;8.932;2023-12-20T03:53:10;0.00;;;0.00;;
7173;SDS011;3628;48.654;8.932;2023-12-20T03:55:36;0.00;;;0.00;;
7173;SDS011;3628;48.654;8.932;2023-12-20T03:58:01;0.00;;;0.00;;
7173;SDS011;3628;48.654;8.932;2023-12-20T04:00:27;0.00;;;0.00;;
7173;SDS011;3628;48.654;8.932;2023-12-20T04:02:52;0.00;;;0.00;;
7173;SDS011;3628;48.654;8.932;2023-12-20T04:05:18;0.00;;;0.00;;
7173;SDS011;3628;48.654;8.932;2023-12-20T04:07:44;0.00;;;0.00;;
7173;SDS011;3628;48.654;8.932;2023-12-20T04:10:09;0.77;;;0.07;;
7173;SDS011;3628;48.654;8.932;2023-12-20T04:12:35;0.00;;;0.00;;
7173;SDS011;3628;48.654;8.932;2023-12-20T04:15:00;0.73;;;0.00;;
7173;SDS011;3628;48.654;8.932;2023-12-20T04:17:26;0.00;;;0.00;;
7173;SDS011;3628;48.654;8.932;2023-12-20T04:19:52;0.00;;;0.00;;
7173;SDS011;3628;48.654;8.932;2023-12-20T04:22:17;0.20;;;0.10;;
7173;SDS011;3628;48.654;8.932;2023-12-20T04:24:43;0.00;;;0.00;;
7173;SDS011;3628;48.654;8.932;2023-12-20T04:27:09;0.00;;;0.00;;
7173;SDS011;3628;48.654;8.932;2023-12-20T04:29:35;0.10;;;0.10;;
7173;SDS011;3628;48.654;8.932;2023-12-20T04:32:01;0.10;;;0.10;;
7173;SDS011;3628;48.654;8.932;2023-12-20T04:34:26;0.13;;;0.03;;
7173;SDS011;3628;48.654;8.932;2023-12-20T04:36:52;0.07;;;0.07;;
7173;SDS011;3628;48.654;8.932;2023-12-20T04:39:18;4.20;;;0.43;;
7173;SDS011;3628;48.654;8.932;2023-12-20T04:41:44;0.17;;;0.17;;
7173;SDS011;3628;48.654;8.932;2023-12-20T04:44:09;0.10;;;0.10;;
7173;SDS011;3628;48.654;8.932;2023-12-20T04:46:35;0.10;;;0.00;;
7173;SDS011;3628;48.654;8.932;2023-12-20T04:49:00;0.27;;;0.03;;
7173;SDS011;3628;48.654;8.932;2023-12-20T04:51:26;0.50;;;0.10;;
7173;SDS011;3628;48.654;8.932;2023-12-20T04:53:52;1.60;;;0.10;;
7173;SDS011;3628;48.654;8.932;2023-12-20T04:56:17;0.10;;;0.10;;
7173;SDS011;3628;48.654;8.932;2023-12-20T04:58:43;0.10;;;0.10;;
7173;SDS011;3628;48.654;8.932;2023-12-20T05:01:09;0.10;;;0.10;;
7173;SDS011;3628;48.654;8.932;2023-12-20T05:03:35;0.20;;;0.20;;
7173;SDS011;3628;48.654;8.932;2023-12-20T05:06:00;0.10;;;0.10;;
7173;SDS011;3628;48.654;8.932;2023-12-20T05:08:26;0.20;;;0.20;;
7173;SDS011;3628;48.654;8.932;2023-12-20T05:10:53;0.10;;;0.10;;
7173;SDS011;3628;48.654;8.932;2023-12-20T05:13:19;0.30;;;0.30;;
7173;SDS011;3628;48.654;8.932;2023-12-20T05:15:45;0.20;;;0.20;;
7173;SDS011;3628;48.654;8.932;2023-12-20T05:18:11;0.13;;;0.00;;
7173;SDS011;3628;48.654;8.932;2023-12-20T05:20:37;0.20;;;0.10;;
7173;SDS011;3628;48.654;8.932;2023-12-20T05:23:03;0.20;;;0.20;;
7173;SDS011;3628;48.654;8.932;2023-12-20T05:25:29;0.50;;;0.20;;
7173;SDS011;3628;48.654;8.932;2023-12-20T05:27:54;0.20;;;0.10;;
7173;SDS011;3628;48.654;8.932;2023-12-20T05:30:21;0.10;;;0.10;;
7173;SDS011;3628;48.654;8.932;2023-12-20T05:32:46;0.07;;;0.07;;
7173;SDS011;3628;48.654;8.932;2023-12-20T05:35:12;1.60;;;0.20;;
7173;SDS011;3628;48.654;8.932;2023-12-20T05:37:38;0.10;;;0.10;;
7173;SDS011;3628;48.654;8.932;2023-12-20T05:40:03;0.20;;;0.13;;
7173;SDS011;3628;48.654;8.932;2023-12-20T05:42:29;0.00;;;0.00;;
7173;SDS011;3628;48.654;8.932;2023-12-20T05:44:55;0.40;;;0.20;;
7173;SDS011;3628;48.654;8.932;2023-12-20T05:47:20;0.20;;;0.20;;
7173;SDS011;3628;48.654;8.932;2023-12-20T05:49:46;0.63;;;0.10;;
7173;SDS011;3628;48.654;8.932;2023-12-20T05:52:12;0.07;;;0.03;;
7173;SDS011;3628;48.654;8.932;2023-12-20T05:54:37;0.00;;;0.00;;
7173;SDS011;3628;48.654;8.932;2023-12-20T05:57:03;0.00;;;0.00;;
7173;SDS011;3628;48.654;8.932;2023-12-20T05:59:29;0.17;;;0.10;;
7173;SDS011;3628;48.654;8.932;2023-12-20T06:01:54;0.23;;;0.20;;
7173;SDS011;3628;48.654;8.932;2023-12-20T06:04:20;0.27;;;0.10;;
7173;SDS011;3628;48.654;8.932;2023-12-20T06:06:45;0.27;;;0.27;;
7173;SDS011;3628;48.654;8.932;2023-12-20T06:09:11;0.40;;;0.40;;
7173;SDS011;3628;48.654;8.932;2023-12-20T06:11:37;0.50;;;0.50;;
7173;SDS011;3628;48.654;8.932;2023-12-20T06:14:02;0.63;;;0.50;;
7173;SDS011;3628;48.654;8.932;2023-12-20T06:16:28;0.60;;;0.43;;
7173;SDS011;3628;48.654;8.932;2023-12-20T06:18:53;0.70;;;0.70;;
7173;SDS011;3628;48.654;8.932;2023-12-20T06:21:19;2.63;;;0.93;;
7173;SDS011;3628;48.654;8.932;2023-12-20T06:23:45;0.87;;;0.70;;
7173;SDS011;3628;48.654;8.932;2023-12-20T06:26:10;2.07;;;0.60;;
7173;SDS011;3628;48.654;8.932;2023-12-20T06:28:36;1.33;;;0.60;;
7173;SDS011;3628;48.654;8.932;2023-12-20T06:31:01;2.03;;;0.60;;
7173;SDS011;3628;48.654;8.932;2023-12-20T06:33:28;0.40;;;0.37;;
7173;SDS011;3628;48.654;8.932;2023-12-20T06:35:55;1.40;;;0.30;;
7173;SDS011;3628;48.654;8.932;2023-12-20T06:38:21;0.30;;;0.30;;
7173;SDS011;3628;48.654;8.932;2023-12-20T06:40:47;37.80;;;2.70;;
7173;SDS011;3628;48.654;8.932;2023-12-20T06:43:12;0.40;;;0.40;;
7173;SDS011;3628;48.654;8.932;2023-12-20T06:45:38;18.73;;;2.10;;
7173;SDS011;3628;48.654;8.932;2023-12-20T06:48:04;3.03;;;1.70;;
7173;SDS011;3628;48.654;8.932;2023-12-20T06:50:30;1.40;;;0.90;;
7173;SDS011;3628;48.654;8.932;2023-12-20T06:52:56;1.37;;;0.80;;
7173;SDS011;3628;48.654;8.932;2023-12-20T06:55:21;3.17;;;1.30;;
7173;SDS011;3628;48.654;8.932;2023-12-20T06:57:47;8.40;;;1.70;;
7173;SDS011;3628;48.654;8.932;2023-12-20T07:00:12;1.93;;;1.30;;
7173;SDS011;3628;48.654;8.932;2023-12-20T07:02:38;1.60;;;1.00;;
7173;SDS011;3628;48.654;8.932;2023-12-20T07:05:04;0.90;;;0.70;;
7173;SDS011;3628;48.654;8.932;2023-12-20T07:07:30;0.93;;;0.50;;
7173;SDS011;3628;48.654;8.932;2023-12-20T07:09:55;10.40;;;0.97;;
7173;SDS011;3628;48.654;8.932;2023-12-20T07:12:21;1.30;;;0.40;;
7173;SDS011;3628;48.654;8.932;2023-12-20T07:14:47;0.30;;;0.30;;
7173;SDS011;3628;48.654;8.932;2023-12-20T07:17:12;0.70;;;0.40;;
7173;SDS011;3628;48.654;8.932;2023-12-20T07:19:40;0.80;;;0.80;;
7173;SDS011;3628;48.654;8.932;2023-12-20T07:22:06;2.80;;;1.50;;
7173;SDS011;3628;48.654;8.932;2023-12-20T07:24:32;1.70;;;0.70;;
7173;SDS011;3628;48.654;8.932;2023-12-20T07:27:01;0.50;;;0.50;;
7173;SDS011;3628;48.654;8.932;2023-12-20T07:29:27;0.20;;;0.20;;
7173;SDS011;3628;48.654;8.932;2023-12-20T07:31:53;0.40;;;0.20;;
7173;SDS011;3628;48.654;8.932;2023-12-20T07:34:19;0.90;;;0.30;;
7173;SDS011;3628;48.654;8.932;2023-12-20T07:36:48;1.57;;;1.00;;
7173;SDS011;3628;48.654;8.932;2023-12-20T07:39:13;8.33;;;0.80;;
7173;SDS011;3628;48.654;8.932;2023-12-20T07:41:39;0.53;;;0.40;;
7173;SDS011;3628;48.654;8.932;2023-12-20T07:44:06;0.40;;;0.40;;
7173;SDS011;3628;48.654;8.932;2023-12-20T07:46:32;0.40;;;0.40;;
7173;SDS011;3628;48.654;8.932;2023-12-20T07:48:58;0.20;;;0.20;;
7173;SDS011;3628;48.654;8.932;2023-12-20T07:51:23;0.20;;;0.20;;
7173;SDS011;3628;48.654;8.932;2023-12-20T07:53:49;3.47;;;0.67;;
7173;SDS011;3628;48.654;8.932;2023-12-20T07:56:17;0.67;;;0.50;;
7173;SDS011;3628;48.654;8.932;2023-12-20T07:58:43;0.50;;;0.50;;
7173;SDS011;3628;48.654;8.932;2023-12-20T08:01:12;0.60;;;0.60;;
7173;SDS011;3628;48.654;8.932;2023-12-20T08:03:38;1.23;;;0.80;;
7173;SDS011;3628;48.654;8.932;2023-12-20T08:06:04;50.50;;;3.63;;
7173;SDS011;3628;48.654;8.932;2023-12-20T08:08:29;0.70;;;0.60;;
7173;SDS011;3628;48.654;8.932;2023-12-20T08:10:55;0.73;;;0.60;;
7173;SDS011;3628;48.654;8.932;2023-12-20T08:13:24;0.60;;;0.50;;
7173;SDS011;3628;48.654;8.932;2023-12-20T08:15:51;1.73;;;0.50;;
7173;SDS011;3628;48.654;8.932;2023-12-20T08:18:21;1.73;;;0.50;;
7173;SDS011;3628;48.654;8.932;2023-12-20T08:20:47;0.67;;;0.60;;
7173;SDS011;3628;48.654;8.932;2023-12-20T08:23:13;1.10;;;0.60;;
7173;SDS011;3628;48.654;8.932;2023-12-20T08:25:40;1.80;;;0.80;;
7173;SDS011;3628;48.654;8.932;2023-12-20T08:28:05;1.40;;;0.87;;
7173;SDS011;3628;48.654;8.932;2023-12-20T08:30:31;1.30;;;0.90;;
7173;SDS011;3628;48.654;8.932;2023-12-20T08:32:59;1.80;;;1.10;;
7173;SDS011;3628;48.654;8.932;2023-12-20T08:35:25;1.13;;;1.03;;
7173;SDS011;3628;48.654;8.932;2023-12-20T08:37:51;1.23;;;1.00;;
7173;SDS011;3628;48.654;8.932;2023-12-20T08:40:16;1.00;;;0.80;;
7173;SDS011;3628;48.654;8.932;2023-12-20T08:42:42;1.17;;;0.73;;
7173;SDS011;3628;48.654;8.932;2023-12-20T08:45:07;0.57;;;0.57;;
7173;SDS011;3628;48.654;8.932;2023-12-20T08:47:33;0.67;;;0.60;;
7173;SDS011;3628;48.654;8.932;2023-12-20T08:49:59;0.67;;;0.50;;
7173;SDS011;3628;48.654;8.932;2023-12-20T08:52:25;1.93;;;0.70;;
7173;SDS011;3628;48.654;8.932;2023-12-20T08:54:52;0.50;;;0.50;;
7173;SDS011;3628;48.654;8.932;2023-12-20T08:57:21;1.33;;;0.70;;
7173;SDS011;3628;48.654;8.932;2023-12-20T08:59:48;0.73;;;0.63;;
7173;SDS011;3628;48.654;8.932;2023-12-20T09:02:15;1.17;;;0.60;;
7173;SDS011;3628;48.654;8.932;2023-12-20T09:04:41;0.97;;;0.50;;
7173;SDS011;3628;48.654;8.932;2023-12-20T09:07:20;1.40;;;0.70;;
7173;SDS011;3628;48.654;8.932;2023-12-20T09:09:49;1.03;;;0.60;;
7173;SDS011;3628;48.654;8.932;2023-12-20T09:12:15;0.93;;;0.47;;
7173;SDS011;3628;48.654;8.932;2023-12-20T09:14:42;2.03;;;0.80;;
7173;SDS011;3628;48.654;8.932;2023-12-20T09:17:07;1.47;;;0.60;;
7173;SDS011;3628;48.654;8.932;2023-12-20T09:19:33;2.50;;;0.63;;
7173;SDS011;3628;48.654;8.932;2023-12-20T09:21:59;1.13;;;0.60;;
7173;SDS011;3628;48.654;8.932;2023-12-20T09:24:25;2.80;;;1.20;;
7173;SDS011;3628;48.654;8.932;2023-12-20T09:26:50;4.33;;;1.80;;
7173;SDS011;3628;48.654;8.932;2023-12-20T09:29:16;3.63;;;1.50;;
7173;SDS011;3628;48.654;8.932;2023-12-20T09:31:42;2.67;;;1.43;;
7173;SDS011;3628;48.654;8.932;2023-12-20T09:34:09;2.70;;;1.07;;
7173;SDS011;3628;48.654;8.932;2023-12-20T09:36:34;6.63;;;1.80;;
7173;SDS011;3628;48.654;8.932;2023-12-20T09:39:01;17.73;;;7.17;;
7173;SDS011;3628;48.654;8.932;2023-12-20T09:41:27;8.13;;;4.20;;
7173;SDS011;3628;48.654;8.932;2023-12-20T09:43:56;11.67;;;5.03;;
7173;SDS011;3628;48.654;8.932;2023-12-20T09:46:27;38.13;;;15.67;;
7173;SDS011;3628;48.654;8.932;2023-12-20T09:48:58;10.90;;;5.13;;
7173;SDS011;3628;48.654;8.932;2023-12-20T09:51:24;16.00;;;6.40;;
7173;SDS011;3628;48.654;8.932;2023-12-20T09:53:52;16.33;;;6.00;;
7173;SDS011;3628;48.654;8.932;2023-12-20T09:56:19;5.57;;;2.40;;
7173;SDS011;3628;48.654;8.932;2023-12-20T09:58:46;5.67;;;2.00;;
7173;SDS011;3628;48.654;8.932;2023-12-20T10:01:12;2.33;;;1.10;;
7173;SDS011;3628;48.654;8.932;2023-12-20T10:03:39;5.50;;;1.83;;
7173;SDS011;3628;48.654;8.932;2023-12-20T10:06:06;5.33;;;2.40;;
7173;SDS011;3628;48.654;8.932;2023-12-20T10:08:32;3.63;;;1.77;;
7173;SDS011;3628;48.654;8.932;2023-12-20T10:10:57;9.53;;;3.93;;
7173;SDS011;3628;48.654;8.932;2023-12-20T10:13:27;9.70;;;5.00;;
7173;SDS011;3628;48.654;8.932;2023-12-20T10:15:54;4.90;;;2.73;;
7173;SDS011;3628;48.654;8.932;2023-12-20T10:18:20;6.87;;;3.37;;
7173;SDS011;3628;48.654;8.932;2023-12-20T10:20:46;8.13;;;3.63;;
7173;SDS011;3628;48.654;8.932;2023-12-20T10:23:12;3.53;;;1.10;;
7173;SDS011;3628;48.654;8.932;2023-12-20T10:25:39;4.03;;;2.13;;
7173;SDS011;3628;48.654;8.932;2023-12-20T10:28:11;2.60;;;0.90;;
7173;SDS011;3628;48.654;8.932;2023-12-20T10:30:46;2.47;;;0.87;;
7173;SDS011;3628;48.654;8.932;2023-12-20T10:33:11;1.53;;;0.70;;
7173;SDS011;3628;48.654;8.932;2023-12-20T10:35:37;2.67;;;0.80;;
7173;SDS011;3628;48.654;8.932;2023-12-20T10:38:04;1.17;;;0.60;;
7173;SDS011;3628;48.654;8.932;2023-12-20T10:40:31;2.97;;;1.10;;
7173;SDS011;3628;48.654;8.932;2023-12-20T10:43:01;4.47;;;0.90;;
7173;SDS011;3628;48.654;8.932;2023-12-20T10:45:28;3.10;;;0.83;;
7173;SDS011;3628;48.654;8.932;2023-12-20T10:47:53;2.70;;;1.07;;
7173;SDS011;3628;48.654;8.932;2023-12-20T10:50:20;1.97;;;1.00;;
7173;SDS011;3628;48.654;8.932;2023-12-20T10:52:46;1.43;;;0.50;;
7173;SDS011;3628;48.654;8.932;2023-12-20T10:55:13;1.10;;;0.70;;
7173;SDS011;3628;48.654;8.932;2023-12-20T10:57:39;4.63;;;0.80;;
7173;SDS011;3628;48.654;8.932;2023-12-20T11:00:06;4.50;;;1.00;;
7173;SDS011;3628;48.654;8.932;2023-12-20T11:02:38;2.53;;;0.83;;
7173;SDS011;3628;48.654;8.932;2023-12-20T11:07:38;1.17;;;0.80;;
7173;SDS011;3628;48.654;8.932;2023-12-20T11:10:19;0.93;;;0.53;;
7173;SDS011;3628;48.654;8.932;2023-12-20T11:15:17;4.03;;;1.17;;
7173;SDS011;3628;48.654;8.932;2023-12-20T11:17:44;1.97;;;1.10;;
7173;SDS011;3628;48.654;8.932;2023-12-20T11:20:11;3.03;;;0.80;;
7173;SDS011;3628;48.654;8.932;2023-12-20T11:22:37;2.60;;;0.90;;
7173;SDS011;3628;48.654;8.932;2023-12-20T11:25:16;1.57;;;0.50;;
7173;SDS011;3628;48.654;8.932;2023-12-20T11:27:42;6.50;;;1.30;;
7173;SDS011;3628;48.654;8.932;2023-12-20T11:30:08;2.33;;;0.60;;
7173;SDS011;3628;48.654;8.932;2023-12-20T11:32:35;0.63;;;0.30;;
7173;SDS011;3628;48.654;8.932;2023-12-20T11:35:16;4.13;;;0.63;;
7173;SDS011;3628;48.654;8.932;2023-12-20T11:37:44;1.17;;;0.70;;
7173;SDS011;3628;48.654;8.932;2023-12-20T11:40:13;2.30;;;0.50;;
7173;SDS011;3628;48.654;8.932;2023-12-20T11:42:43;1.50;;;0.57;;
7173;SDS011;3628;48.654;8.932;2023-12-20T11:45:11;1.23;;;0.43;;
7173;SDS011;3628;48.654;8.932;2023-12-20T11:47:40;3.10;;;0.70;;
7173;SDS011;3628;48.654;8.932;2023-12-20T11:50:07;1.67;;;0.63;;
7173;SDS011;3628;48.654;8.932;2023-12-20T11:52:33;4.17;;;1.20;;
7173;SDS011;3628;48.654;8.932;2023-12-20T11:54:58;1.80;;;0.90;;
7173;SDS011;3628;48.654;8.932;2023-12-20T11:57:24;4.40;;;1.20;;
7173;SDS011;3628;48.654;8.932;2023-12-20T11:59:50;5.30;;;1.13;;
7173;SDS011;3628;48.654;8.932;2023-12-20T12:02:16;2.77;;;0.90;;
7173;SDS011;3628;48.654;8.932;2023-12-20T12:04:42;3.70;;;1.17;;
7173;SDS011;3628;48.654;8.932;2023-12-20T12:07:07;1.93;;;0.70;;
7173;SDS011;3628;48.654;8.932;2023-12-20T12:09:33;3.43;;;1.23;;
7173;SDS011;3628;48.654;8.932;2023-12-20T12:12:00;4.00;;;0.87;;
7173;SDS011;3628;48.654;8.932;2023-12-20T12:14:25;2.27;;;0.70;;
7173;SDS011;3628;48.654;8.932;2023-12-20T12:16:51;2.00;;;1.00;;
7173;SDS011;3628;48.654;8.932;2023-12-20T12:19:24;1.83;;;0.70;;
7173;SDS011;3628;48.654;8.932;2023-12-20T12:22:12;3.07;;;0.80;;
7173;SDS011;3628;48.654;8.932;2023-12-20T12:24:39;2.87;;;0.70;;
7173;SDS011;3628;48.654;8.932;2023-12-20T12:27:06;2.10;;;0.77;;
7173;SDS011;3628;48.654;8.932;2023-12-20T12:29:32;2.50;;;0.70;;
7173;SDS011;3628;48.654;8.932;2023-12-20T12:31:59;3.03;;;1.10;;
7173;SDS011;3628;48.654;8.932;2023-12-20T12:34:27;3.90;;;1.03;;
7173;SDS011;3628;48.654;8.932;2023-12-20T12:36:53;1.73;;;0.40;;
7173;SDS011;3628;48.654;8.932;2023-12-20T12:39:19;2.77;;;1.00;;
7173;SDS011;3628;48.654;8.932;2023-12-20T12:41:45;3.00;;;0.80;;
7173;SDS011;3628;48.654;8.932;2023-12-20T12:44:10;2.07;;;0.90;;
7173;SDS011;3628;48.654;8.932;2023-12-20T12:46:36;4.00;;;0.73;;
7173;SDS011;3628;48.654;8.932;2023-12-20T12:49:01;3.93;;;1.07;;
7173;SDS011;3628;48.654;8.932;2023-12-20T12:51:27;4.50;;;1.50;;
7173;SDS011;3628;48.654;8.932;2023-12-20T12:53:53;3.40;;;1.20;;
7173;SDS011;3628;48.654;8.932;2023-12-20T12:56:18;2.40;;;0.90;;
7173;SDS011;3628;48.654;8.932;2023-12-20T12:58:44;4.57;;;0.83;;
7173;SDS011;3628;48.654;8.932;2023-12-20T13:01:10;2.20;;;1.00;;
7173;SDS011;3628;48.654;8.932;2023-12-20T13:03:36;3.50;;;0.90;;
7173;SDS011;3628;48.654;8.932;2023-12-20T13:06:01;3.90;;;1.03;;
7173;SDS011;3628;48.654;8.932;2023-12-20T13:08:27;5.50;;;1.90;;
7173;SDS011;3628;48.654;8.932;2023-12-20T13:10:54;6.53;;;1.63;;
7173;SDS011;3628;48.654;8.932;2023-12-20T13:13:20;10.37;;;2.17;;
7173;SDS011;3628;48.654;8.932;2023-12-20T13:15:46;4.13;;;1.20;;
7173;SDS011;3628;48.654;8.932;2023-12-20T13:18:16;6.53;;;1.90;;
7173;SDS011;3628;48.654;8.932;2023-12-20T13:20:43;2.87;;;0.90;;
7173;SDS011;3628;48.654;8.932;2023-12-20T13:23:09;6.60;;;2.10;;
7173;SDS011;3628;48.654;8.932;2023-12-20T13:25:34;4.67;;;1.20;;
7173;SDS011;3628;48.654;8.932;2023-12-20T13:28:00;3.33;;;0.70;;
7173;SDS011;3628;48.654;8.932;2023-12-20T13:30:26;1.10;;;0.70;;
7173;SDS011;3628;48.654;8.932;2023-12-20T13:32:51;4.27;;;1.40;;
7173;SDS011;3628;48.654;8.932;2023-12-20T13:35:17;4.23;;;1.30;;
7173;SDS011;3628;48.654;8.932;2023-12-20T13:37:42;5.00;;;1.70;;
7173;SDS011;3628;48.654;8.932;2023-12-20T13:40:09;1.50;;;0.80;;
7173;SDS011;3628;48.654;8.932;2023-12-20T13:42:35;3.07;;;1.20;;
7173;SDS011;3628;48.654;8.932;2023-12-20T13:45:01;2.87;;;1.23;;
7173;SDS011;3628;48.654;8.932;2023-12-20T13:47:26;2.00;;;0.80;;
7173;SDS011;3628;48.654;8.932;2023-12-20T13:49:52;5.23;;;1.10;;
7173;SDS011;3628;48.654;8.932;2023-12-20T13:52:17;1.60;;;0.63;;
7173;SDS011;3628;48.654;8.932;2023-12-20T13:54:43;3.03;;;0.90;;
7173;SDS011;3628;48.654;8.932;2023-12-20T13:57:09;1.17;;;0.60;;
7173;SDS011;3628;48.654;8.932;2023-12-20T13:59:34;2.50;;;0.70;;
7173;SDS011;3628;48.654;8.932;2023-12-20T14:02:00;2.33;;;1.03;;
7173;SDS011;3628;48.654;8.932;2023-12-20T14:04:28;2.97;;;0.80;;
7173;SDS011;3628;48.654;8.932;2023-12-20T14:06:54;1.53;;;0.90;;
7173;SDS011;3628;48.654;8.932;2023-12-20T14:09:19;2.60;;;0.63;;
7173;SDS011;3628;48.654;8.932;2023-12-20T14:11:45;2.70;;;0.80;;
7173;SDS011;3628;48.654;8.932;2023-12-20T14:14:11;2.53;;;0.83;;
7173;SDS011;3628;48.654;8.932;2023-12-20T14:16:37;1.57;;;0.60;;
7173;SDS011;3628;48.654;8.932;2023-12-20T14:19:03;4.23;;;1.00;;
7173;SDS011;3628;48.654;8.932;2023-12-20T14:21:28;2.30;;;0.67;;
7173;SDS011;3628;48.654;8.932;2023-12-20T14:23:54;1.40;;;0.70;;
7173;SDS011;3628;48.654;8.932;2023-12-20T14:26:20;1.50;;;0.70;;
7173;SDS011;3628;48.654;8.932;2023-12-20T14:28:45;5.40;;;1.00;;
7173;SDS011;3628;48.654;8.932;2023-12-20T14:31:11;1.30;;;0.70;;
7173;SDS011;3628;48.654;8.932;2023-12-20T14:33:36;2.77;;;0.90;;
7173;SDS011;3628;48.654;8.932;2023-12-20T14:36:04;2.10;;;0.60;;
7173;SDS011;3628;48.654;8.932;2023-12-20T14:38:30;2.30;;;0.73;;
7173;SDS011;3628;48.654;8.932;2023-12-20T14:40:56;2.10;;;0.80;;
7173;SDS011;3628;48.654;8.932;2023-12-20T14:43:22;2.43;;;0.60;;
7173;SDS011;3628;48.654;8.932;2023-12-20T14:45:48;1.30;;;0.60;;
7173;SDS011;3628;48.654;8.932;2023-12-20T14:48:14;3.50;;;0.90;;
7173;SDS011;3628;48.654;8.932;2023-12-20T14:50:40;2.87;;;0.73;;
7173;SDS011;3628;48.654;8.932;2023-12-20T14:53:07;2.63;;;0.93;;
7173;SDS011;3628;48.654;8.932;2023-12-20T14:55:33;4.83;;;2.40;;
7173;SDS011;3628;48.654;8.932;2023-12-20T14:57:59;4.93;;;1.20;;
7173;SDS011;3628;48.654;8.932;2023-12-20T15:00:25;4.90;;;1.43;;
7173;SDS011;3628;48.654;8.932;2023-12-20T15:02:51;3.37;;;1.40;;
7173;SDS011;3628;48.654;8.932;2023-12-20T15:05:19;3.17;;;1.20;;
7173;SDS011;3628;48.654;8.932;2023-12-20T15:07:45;3.57;;;1.07;;
7173;SDS011;3628;48.654;8.932;2023-12-20T15:10:12;1.57;;;0.70;;
7173;SDS011;3628;48.654;8.932;2023-12-20T15:12:38;3.70;;;1.00;;
7173;SDS011;3628;48.654;8.932;2023-12-20T15:15:03;1.53;;;0.90;;